createdAt,value
2023-05-05T00:00:53.903Z,95480.00
2023-05-05T00:01:53.926Z,95478.00
2023-05-05T00:02:53.948Z,95480.00
2023-05-05T00:03:53.960Z,95478.00
2023-05-05T00:04:53.912Z,95476.00
2023-05-05T00:05:53.908Z,95476.00
2023-05-05T00:06:53.927Z,95478.00
2023-05-05T00:07:53.941Z,95478.00
2023-05-05T00:08:53.967Z,95480.00
2023-05-05T00:09:53.995Z,95476.00
2023-05-05T00:10:54.044Z,95474.00
2023-05-05T00:11:54.047Z,95480.00
2023-05-05T00:12:54.083Z,95476.00
2023-05-05T00:13:54.093Z,95476.00
2023-05-05T00:14:54.108Z,95476.00
2023-05-05T00:15:54.126Z,95476.00
2023-05-05T00:16:54.244Z,95478.00
2023-05-05T00:17:54.195Z,95478.00
2023-05-05T00:18:54.198Z,95478.00
2023-05-05T00:19:54.225Z,95476.00
2023-05-05T00:20:54.264Z,95476.00
2023-05-05T00:21:54.306Z,95476.00
2023-05-05T00:22:54.342Z,95478.00
2023-05-05T00:23:54.361Z,95476.00
2023-05-05T00:24:54.396Z,95476.00
2023-05-05T00:25:54.431Z,95478.00
2023-05-05T00:26:54.485Z,95476.00
2023-05-05T00:27:54.490Z,95474.00
2023-05-05T00:28:54.530Z,95472.00
2023-05-05T00:29:54.561Z,95474.00
2023-05-05T00:30:54.659Z,95478.00
2023-05-05T00:31:54.639Z,95478.00
2023-05-05T00:32:54.705Z,95480.00
2023-05-05T00:33:54.704Z,95478.00
2023-05-05T00:34:54.747Z,95478.00
2023-05-05T00:35:54.762Z,95478.00
2023-05-05T00:36:54.809Z,95480.00
2023-05-05T00:37:54.815Z,95482.00
2023-05-05T00:38:54.852Z,95483.00
2023-05-05T00:39:54.880Z,95483.00
2023-05-05T00:40:54.888Z,95482.00
2023-05-05T00:41:54.903Z,95483.00
2023-05-05T00:42:54.981Z,95483.00
2023-05-05T00:43:54.950Z,95482.00
2023-05-05T00:44:54.968Z,95480.00
2023-05-05T00:45:55.006Z,95480.00
2023-05-05T00:46:55.067Z,95480.00
2023-05-05T00:47:55.098Z,95482.00
2023-05-05T00:48:55.128Z,95480.00
2023-05-05T00:49:55.146Z,95478.00
2023-05-05T00:50:55.175Z,95478.00
2023-05-05T00:51:55.214Z,95480.00
2023-05-05T00:52:55.269Z,95476.00
2023-05-05T00:53:55.308Z,95478.00
2023-05-05T00:54:55.302Z,95478.00
2023-05-05T00:55:55.329Z,95474.00
2023-05-05T00:56:55.378Z,95474.00
2023-05-05T00:57:55.398Z,95474.00
2023-05-05T00:58:55.456Z,95476.00
2023-05-05T00:59:55.444Z,95474.00
2023-05-05T01:00:55.460Z,95476.00
2023-05-05T01:01:55.533Z,95476.00
2023-05-05T01:02:55.618Z,95478.00
2023-05-05T01:03:55.652Z,95478.00
2023-05-05T01:04:55.570Z,95478.00
2023-05-05T01:05:55.624Z,95478.00
2023-05-05T01:06:55.638Z,95476.00
2023-05-05T01:07:55.674Z,95474.00
2023-05-05T01:08:55.721Z,95478.00
2023-05-05T01:10:07.585Z,95474.00
2023-05-05T01:10:55.753Z,95474.00
2023-05-05T01:11:55.739Z,95474.00
2023-05-05T01:12:55.738Z,95476.00
2023-05-05T01:13:55.729Z,95474.00
2023-05-05T01:14:55.745Z,95476.00
2023-05-05T01:15:55.744Z,95476.00
2023-05-05T01:16:55.708Z,95476.00
2023-05-05T01:17:55.753Z,95478.00
2023-05-05T01:18:55.692Z,95478.00
2023-05-05T01:19:55.693Z,95476.00
2023-05-05T01:20:55.677Z,95476.00
2023-05-05T01:21:55.670Z,95476.00
2023-05-05T01:22:55.665Z,95478.00
2023-05-05T01:23:55.661Z,95478.00
2023-05-05T01:24:55.658Z,95478.00
2023-05-05T01:25:55.646Z,95478.00
2023-05-05T01:26:55.635Z,95480.00
2023-05-05T01:27:55.640Z,95476.00
2023-05-05T01:28:55.631Z,95480.00
2023-05-05T01:29:55.625Z,95478.00
2023-05-05T01:30:55.661Z,95478.00
2023-05-05T01:31:55.643Z,95478.00
2023-05-05T01:32:55.655Z,95480.00
2023-05-05T01:33:55.599Z,95480.00
2023-05-05T01:34:55.587Z,95480.00
2023-05-05T01:35:55.583Z,95482.00
2023-05-05T01:36:55.576Z,95483.00
2023-05-05T01:37:55.569Z,95482.00
2023-05-05T01:38:55.555Z,95482.00
2023-05-05T01:39:55.544Z,95478.00
2023-05-05T01:40:55.543Z,95480.00
2023-05-05T01:41:55.534Z,95474.00
2023-05-05T01:42:55.552Z,95480.00
2023-05-05T01:43:55.524Z,95482.00
2023-05-05T01:44:55.510Z,95482.00
2023-05-05T01:45:55.537Z,95478.00
2023-05-05T01:46:55.558Z,95487.00
2023-05-05T01:47:55.605Z,95483.00
2023-05-05T01:48:55.616Z,95482.00
2023-05-05T01:49:55.646Z,95482.00
2023-05-05T01:50:55.691Z,95483.00
2023-05-05T01:51:55.726Z,95483.00
2023-05-05T01:52:55.766Z,95485.00
2023-05-05T01:53:55.826Z,95487.00
2023-05-05T01:54:55.827Z,95489.00
2023-05-05T01:55:55.854Z,95485.00
2023-05-05T01:56:55.864Z,95487.00
2023-05-05T01:57:55.907Z,95487.00
2023-05-05T01:58:55.942Z,95491.00
2023-05-05T01:59:55.971Z,95489.00
2023-05-05T02:00:56.037Z,95491.00
2023-05-05T02:01:56.052Z,95491.00
2023-05-05T02:02:56.283Z,95495.00
2023-05-05T02:03:56.118Z,95495.00
2023-05-05T02:04:56.156Z,95493.00
2023-05-05T02:05:56.193Z,95491.00
2023-05-05T02:06:56.234Z,95487.00
2023-05-05T02:07:56.269Z,95491.00
2023-05-05T02:08:56.317Z,95491.00
2023-05-05T02:09:56.355Z,95491.00
2023-05-05T02:10:56.426Z,95491.00
2023-05-05T02:11:56.422Z,95493.00
2023-05-05T02:12:56.597Z,95495.00
2023-05-05T02:13:56.545Z,95495.00
2023-05-05T02:14:56.550Z,95499.00
2023-05-05T02:15:56.675Z,95495.00
2023-05-05T02:16:56.606Z,95495.00
2023-05-05T02:17:56.635Z,95497.00
2023-05-05T02:18:56.664Z,95499.00
2023-05-05T02:19:56.665Z,95501.00
2023-05-05T02:20:56.706Z,95501.00
2023-05-05T02:21:56.752Z,95499.00
2023-05-05T02:22:56.781Z,95497.00
2023-05-05T02:23:56.823Z,95501.00
2023-05-05T02:24:56.864Z,95501.00
2023-05-05T02:25:56.908Z,95501.00
2023-05-05T02:26:56.959Z,95501.00
2023-05-05T02:27:57.003Z,95501.00
2023-05-05T02:28:57.039Z,95499.00
2023-05-05T02:29:57.077Z,95499.00
2023-05-05T02:30:57.154Z,95497.00
2023-05-05T02:31:57.119Z,95503.00
2023-05-05T02:32:57.195Z,95497.00
2023-05-05T02:33:57.204Z,95499.00
2023-05-05T02:34:57.266Z,95497.00
2023-05-05T02:35:57.282Z,95499.00
2023-05-05T02:36:57.315Z,95497.00
2023-05-05T02:37:57.327Z,95499.00
2023-05-05T02:38:57.353Z,95501.00
2023-05-05T02:39:57.369Z,95501.00
2023-05-05T02:40:57.392Z,95503.00
2023-05-05T02:41:57.410Z,95503.00
2023-05-05T02:42:57.482Z,95501.00
2023-05-05T02:43:57.448Z,95501.00
2023-05-05T02:44:57.461Z,95505.00
2023-05-05T02:45:57.484Z,95505.00
2023-05-05T02:46:57.492Z,95505.00
2023-05-05T02:47:57.562Z,95507.00
2023-05-05T02:48:57.527Z,95507.00
2023-05-05T02:49:57.558Z,95505.00
2023-05-05T02:50:57.631Z,95507.00
2023-05-05T02:51:57.652Z,95507.00
2023-05-05T02:52:57.707Z,95509.00
2023-05-05T02:53:57.723Z,95513.00
2023-05-05T02:54:57.773Z,95511.00
2023-05-05T02:55:57.833Z,95513.00
2023-05-05T02:56:57.870Z,95513.00
2023-05-05T02:57:57.906Z,95511.00
2023-05-05T02:58:57.957Z,95513.00
2023-05-05T02:59:57.997Z,95511.00
2023-05-05T03:00:58.046Z,95513.00
2023-05-05T03:01:58.100Z,95513.00
2023-05-05T03:02:58.161Z,95513.00
2023-05-05T03:03:58.222Z,95515.00
2023-05-05T03:04:58.219Z,95511.00
2023-05-05T03:05:58.265Z,95509.00
2023-05-05T03:06:58.328Z,95513.00
2023-05-05T03:07:58.359Z,95509.00
2023-05-05T03:08:58.392Z,95509.00
2023-05-05T03:09:58.428Z,95509.00
2023-05-05T03:10:58.656Z,95511.00
2023-05-05T03:11:58.545Z,95513.00
2023-05-05T03:12:58.577Z,95513.00
2023-05-05T03:13:58.577Z,95513.00
2023-05-05T03:14:58.624Z,95515.00
2023-05-05T03:15:58.708Z,95515.00
2023-05-05T03:16:58.726Z,95515.00
2023-05-05T03:17:58.776Z,95513.00
2023-05-05T03:18:58.800Z,95513.00
2023-05-05T03:19:59.055Z,95513.00
2023-05-05T03:20:58.869Z,95513.00
2023-05-05T03:21:58.926Z,95515.00
2023-05-05T03:22:58.967Z,95515.00
2023-05-05T03:23:58.974Z,95513.00
2023-05-05T03:24:59.025Z,95511.00
2023-05-05T03:25:59.071Z,95513.00
2023-05-05T03:26:59.118Z,95515.00
2023-05-05T03:27:59.174Z,95515.00
2023-05-05T03:28:59.213Z,95515.00
2023-05-05T03:29:59.271Z,95513.00
2023-05-05T03:30:59.305Z,95513.00
2023-05-05T03:31:59.374Z,95511.00
2023-05-05T03:33:00.276Z,95513.00
2023-05-05T03:33:59.457Z,95513.00
2023-05-05T03:34:59.489Z,95515.00
2023-05-05T03:35:59.548Z,95513.00
2023-05-05T03:36:59.587Z,95515.00
2023-05-05T03:37:59.637Z,95515.00
2023-05-05T03:38:59.708Z,95513.00
2023-05-05T03:39:59.737Z,95513.00
2023-05-05T03:40:59.785Z,95513.00
2023-05-05T03:41:59.838Z,95515.00
2023-05-05T03:42:59.885Z,95513.00
2023-05-05T03:43:59.945Z,95513.00
2023-05-05T03:44:59.978Z,95515.00
2023-05-05T03:46:00.022Z,95515.00
2023-05-05T03:47:00.066Z,95513.00
2023-05-05T03:48:00.232Z,95511.00
2023-05-05T03:49:00.159Z,95515.00
2023-05-05T03:50:00.197Z,95515.00
2023-05-05T03:51:00.264Z,95513.00
2023-05-05T03:52:00.305Z,95515.00
2023-05-05T03:53:00.363Z,95517.00
2023-05-05T03:54:00.409Z,95519.00
2023-05-05T03:55:00.521Z,95517.00
2023-05-05T03:56:00.538Z,95519.00
2023-05-05T03:57:00.570Z,95517.00
2023-05-05T03:58:00.625Z,95517.00
2023-05-05T03:59:00.675Z,95515.00
2023-05-05T04:00:00.717Z,95517.00
2023-05-05T04:01:00.774Z,95513.00
2023-05-05T04:02:00.881Z,95513.00
2023-05-05T04:03:00.996Z,95513.00
2023-05-05T04:04:00.976Z,95511.00
2023-05-05T04:05:00.938Z,95507.00
2023-05-05T04:06:01.002Z,95509.00
2023-05-05T04:07:01.033Z,95507.00
2023-05-05T04:08:01.064Z,95509.00
2023-05-05T04:09:01.108Z,95511.00
2023-05-05T04:10:01.150Z,95511.00
2023-05-05T04:11:01.219Z,95509.00
2023-05-05T04:12:01.235Z,95507.00
2023-05-05T04:13:01.347Z,95507.00
2023-05-05T04:14:01.352Z,95505.00
2023-05-05T04:15:01.363Z,95505.00
2023-05-05T04:16:01.546Z,95505.00
2023-05-05T04:17:01.474Z,95509.00
2023-05-05T04:18:01.546Z,95509.00
2023-05-05T04:19:01.570Z,95511.00
2023-05-05T04:20:01.631Z,95513.00
2023-05-05T04:21:01.675Z,95513.00
2023-05-05T04:22:01.683Z,95517.00
2023-05-05T04:23:01.712Z,95517.00
2023-05-05T04:24:01.718Z,95517.00
2023-05-05T04:25:01.779Z,95517.00
2023-05-05T04:26:01.811Z,95519.00
2023-05-05T04:27:01.866Z,95521.00
2023-05-05T04:28:01.891Z,95521.00
2023-05-05T04:29:01.897Z,95521.00
2023-05-05T04:30:01.931Z,95525.00
2023-05-05T04:31:01.993Z,95525.00
2023-05-05T04:32:02.009Z,95527.00
2023-05-05T04:33:02.083Z,95525.00
2023-05-05T04:34:02.081Z,95529.00
2023-05-05T04:35:02.139Z,95529.00
2023-05-05T04:36:02.164Z,95527.00
2023-05-05T04:37:02.216Z,95531.00
2023-05-05T04:38:02.239Z,95531.00
2023-05-05T04:39:02.290Z,95531.00
2023-05-05T04:40:02.265Z,95533.00
2023-05-05T04:41:02.289Z,95533.00
2023-05-05T04:42:02.310Z,95531.00
2023-05-05T04:43:02.363Z,95529.00
2023-05-05T04:44:02.344Z,95525.00
2023-05-05T04:45:02.396Z,95523.00
2023-05-05T04:46:02.425Z,95523.00
2023-05-05T04:47:02.446Z,95525.00
2023-05-05T04:48:02.472Z,95525.00
2023-05-05T04:49:02.483Z,95523.00
2023-05-05T04:50:02.519Z,95523.00
2023-05-05T04:51:02.568Z,95525.00
2023-05-05T04:52:02.600Z,95527.00
2023-05-05T04:53:02.640Z,95525.00
2023-05-05T04:54:02.682Z,95527.00
2023-05-05T04:55:02.725Z,95525.00
2023-05-05T04:56:02.777Z,95527.00
2023-05-05T04:57:02.779Z,95529.00
2023-05-05T04:58:02.806Z,95527.00
2023-05-05T04:59:02.855Z,95529.00
2023-05-05T05:00:02.853Z,95531.00
2023-05-05T05:01:02.910Z,95529.00
2023-05-05T05:02:02.981Z,95531.00
2023-05-05T05:03:03.094Z,95531.00
2023-05-05T05:04:03.189Z,95531.00
2023-05-05T05:05:03.085Z,95531.00
2023-05-05T05:06:03.111Z,95529.00
2023-05-05T05:07:03.151Z,95529.00
2023-05-05T05:08:03.229Z,95533.00
2023-05-05T05:09:03.244Z,95533.00
2023-05-05T05:10:03.288Z,95537.00
2023-05-05T05:11:03.315Z,95533.00
2023-05-05T05:12:03.352Z,95535.00
2023-05-05T05:13:03.583Z,95537.00
2023-05-05T05:14:03.389Z,95538.00
2023-05-05T05:15:03.471Z,95542.00
2023-05-05T05:16:03.520Z,95540.00
2023-05-05T05:17:03.504Z,95538.00
2023-05-05T05:18:03.564Z,95540.00
2023-05-05T05:19:03.616Z,95542.00
2023-05-05T05:20:03.641Z,95544.00
2023-05-05T05:21:04.031Z,95542.00
2023-05-05T05:22:03.691Z,95542.00
2023-05-05T05:23:03.670Z,95540.00
2023-05-05T05:24:03.687Z,95542.00
2023-05-05T05:25:03.709Z,95542.00
2023-05-05T05:26:03.737Z,95544.00
2023-05-05T05:27:03.756Z,95544.00
2023-05-05T05:28:10.234Z,95542.00
2023-05-05T05:29:03.764Z,95542.00
2023-05-05T05:30:03.749Z,95544.00
2023-05-05T05:31:03.773Z,95535.00
2023-05-05T05:32:03.772Z,95535.00
2023-05-05T05:33:03.808Z,95538.00
2023-05-05T05:34:03.739Z,95537.00
2023-05-05T05:35:03.726Z,95540.00
2023-05-05T05:36:03.713Z,95538.00
2023-05-05T05:37:03.698Z,95542.00
2023-05-05T05:38:03.716Z,95540.00
2023-05-05T05:39:03.694Z,95546.00
2023-05-05T05:40:03.691Z,95542.00
2023-05-05T05:41:04.051Z,95544.00
2023-05-05T05:42:03.736Z,95544.00
2023-05-05T05:43:03.662Z,95544.00
2023-05-05T05:44:03.646Z,95546.00
2023-05-05T05:45:03.667Z,95542.00
2023-05-05T05:46:04.277Z,95544.00
2023-05-05T05:47:04.096Z,95546.00
2023-05-05T05:48:03.806Z,95544.00
2023-05-05T05:49:04.637Z,95546.00
2023-05-05T05:50:03.672Z,95542.00
2023-05-05T05:51:03.702Z,95544.00
2023-05-05T05:52:04.040Z,95540.00
2023-05-05T05:53:04.054Z,95542.00
2023-05-05T05:54:03.718Z,95548.00
2023-05-05T05:55:03.759Z,95548.00
2023-05-05T05:56:03.747Z,95550.00
2023-05-05T05:57:04.051Z,95550.00
2023-05-05T05:58:03.780Z,95554.00
2023-05-05T05:59:03.764Z,95550.00
2023-05-05T06:00:04.553Z,95550.00
2023-05-05T06:01:11.142Z,95546.00
2023-05-05T06:02:04.066Z,95548.00
2023-05-05T06:03:19.834Z,95552.00
2023-05-05T06:04:07.535Z,95552.00
2023-05-05T06:05:11.147Z,95548.00
2023-05-05T06:06:06.945Z,95546.00
2023-05-05T06:07:03.742Z,95544.00
2023-05-05T06:08:03.704Z,95546.00
2023-05-05T06:09:04.170Z,95542.00
2023-05-05T06:10:18.579Z,95542.00
2023-05-05T06:11:11.085Z,95542.00
2023-05-05T06:12:04.064Z,95546.00
2023-05-05T06:13:11.177Z,95544.00
2023-05-05T06:14:06.874Z,95544.00
2023-05-05T06:15:03.687Z,95544.00
2023-05-05T06:18:19.336Z,95544.00
2023-05-05T06:19:19.300Z,95540.00
2023-05-05T06:20:03.647Z,95538.00
2023-05-05T06:21:03.633Z,95538.00
2023-05-05T06:22:03.629Z,95537.00
2023-05-05T06:23:06.849Z,95538.00
2023-05-05T06:24:04.067Z,95538.00
2023-05-05T06:25:03.593Z,95540.00
2023-05-05T06:26:03.628Z,95540.00
2023-05-05T06:27:04.576Z,95540.00
2023-05-05T06:28:03.604Z,95540.00
2023-05-05T06:29:07.279Z,95538.00
2023-05-05T06:30:03.614Z,95540.00
2023-05-05T06:31:03.588Z,95540.00
2023-05-05T06:32:03.581Z,95540.00
2023-05-05T06:33:03.626Z,95537.00
2023-05-05T06:34:03.556Z,95538.00
2023-05-05T06:35:03.601Z,95542.00
2023-05-05T06:36:03.539Z,95540.00
2023-05-05T06:37:03.586Z,95538.00
2023-05-05T06:38:03.588Z,95537.00
2023-05-05T06:39:03.747Z,95538.00
2023-05-05T06:40:03.498Z,95538.00
2023-05-05T06:41:03.527Z,95535.00
2023-05-05T06:42:03.510Z,95537.00
2023-05-05T06:43:04.560Z,95537.00
2023-05-05T06:44:04.073Z,95537.00
2023-05-05T06:45:03.742Z,95537.00
2023-05-05T06:46:04.210Z,95537.00
2023-05-05T06:47:03.869Z,95537.00
2023-05-05T06:48:03.923Z,95537.00
2023-05-05T06:49:04.098Z,95537.00
2023-05-05T06:50:04.004Z,95535.00
2023-05-05T06:51:11.518Z,95538.00
2023-05-05T06:52:04.039Z,95538.00
2023-05-05T06:53:04.011Z,95537.00
2023-05-05T12:16:59.447Z,95144.00
2023-05-05T12:18:02.735Z,95142.00
2023-05-05T12:19:00.254Z,95139.00
2023-05-05T12:20:00.248Z,95135.00
2023-05-05T12:21:00.244Z,95135.00
2023-05-05T12:22:00.235Z,95133.00
2023-05-05T12:23:00.231Z,95139.00
2023-05-05T12:24:00.238Z,95135.00
2023-05-05T12:25:00.216Z,95135.00
2023-05-05T12:26:00.208Z,95131.00
2023-05-05T12:27:00.222Z,95133.00
2023-05-05T12:28:00.209Z,95129.00
2023-05-05T12:29:00.222Z,95129.00
2023-05-05T12:30:00.189Z,95127.00
2023-05-05T12:31:59.206Z,95121.00
2023-05-05T12:33:00.373Z,95119.00
2023-05-05T12:34:00.169Z,95117.00
2023-05-05T12:35:00.175Z,95115.00
2023-05-05T12:36:00.159Z,95115.00
2023-05-05T12:37:00.161Z,95113.00
2023-05-05T12:38:00.205Z,95111.00
2023-05-05T12:39:00.144Z,95109.00
2023-05-05T12:40:00.186Z,95107.00
2023-05-05T12:41:00.151Z,95107.00
2023-05-05T12:42:00.127Z,95105.00
2023-05-05T12:43:00.192Z,95103.00
2023-05-05T12:44:00.469Z,95105.00
2023-05-05T12:45:00.135Z,95101.00
2023-05-05T12:46:00.141Z,95105.00
2023-05-05T12:47:00.081Z,95101.00
2023-05-05T12:48:00.151Z,95097.00
2023-05-05T12:49:00.247Z,95099.00
2023-05-05T12:50:00.460Z,95095.00
2023-05-05T12:51:00.063Z,95095.00
2023-05-05T12:52:00.044Z,95094.00
2023-05-05T12:53:00.044Z,95092.00
2023-05-05T12:54:00.039Z,95090.00
2023-05-05T12:55:00.465Z,95086.00
2023-05-05T12:56:00.046Z,95084.00
2023-05-05T12:57:00.105Z,95088.00
2023-05-05T12:58:00.157Z,95082.00
2023-05-05T12:59:00.239Z,95082.00
2023-05-05T13:00:00.481Z,95082.00
2023-05-05T13:01:00.428Z,95078.00
2023-05-05T13:02:00.337Z,95078.00
2023-05-05T13:03:00.460Z,95078.00
2023-05-05T13:04:00.430Z,95078.00
2023-05-05T13:05:01.084Z,95078.00
2023-05-05T13:06:00.537Z,95072.00
2023-05-05T13:07:00.592Z,95074.00
2023-05-05T13:08:00.636Z,95072.00
2023-05-05T13:09:00.683Z,95070.00
2023-05-05T13:10:00.997Z,95066.00
2023-05-05T13:11:00.771Z,95068.00
2023-05-05T13:12:00.820Z,95062.00
2023-05-05T13:13:00.984Z,95064.00
2023-05-05T13:14:00.892Z,95062.00
2023-05-05T13:15:00.925Z,95062.00
2023-05-05T13:16:00.996Z,95058.00
2023-05-05T13:17:00.990Z,95054.00
2023-05-05T13:18:01.341Z,95056.00
2023-05-05T13:19:01.122Z,95052.00
2023-05-05T13:20:01.175Z,95052.00
2023-05-05T13:21:01.288Z,95048.00
2023-05-05T13:22:01.271Z,95047.00
2023-05-05T13:23:01.314Z,95045.00
2023-05-05T13:24:08.591Z,95047.00
2023-05-05T13:25:01.355Z,95045.00
2023-05-05T13:26:01.488Z,95043.00
2023-05-05T13:27:01.321Z,95037.00
2023-05-05T13:28:01.311Z,95039.00
2023-05-05T13:29:01.304Z,95039.00
2023-05-05T13:30:01.480Z,95033.00
2023-05-05T13:31:01.320Z,95031.00
2023-05-05T13:32:01.299Z,95029.00
2023-05-05T13:33:01.287Z,95029.00
2023-05-05T13:34:01.485Z,95027.00
2023-05-05T13:35:01.265Z,95023.00
2023-05-05T13:36:01.270Z,95023.00
2023-05-05T13:37:01.355Z,95019.00
2023-05-05T13:38:01.259Z,95019.00
2023-05-05T13:39:01.246Z,95017.00
2023-05-05T13:40:01.262Z,95013.00
2023-05-05T13:41:01.231Z,95011.00
2023-05-05T13:42:01.227Z,95009.00
2023-05-05T13:43:01.218Z,95007.00
2023-05-05T13:44:01.220Z,95007.00
2023-05-05T13:45:01.219Z,95005.00
2023-05-05T13:46:16.217Z,95007.00
2023-05-05T13:47:01.261Z,95005.00
2023-05-05T13:48:01.256Z,95003.00
2023-05-05T13:49:01.511Z,95000.00
2023-05-05T13:50:01.172Z,95000.00
2023-05-05T13:51:01.496Z,94994.00
2023-05-05T13:52:01.162Z,94994.00
2023-05-05T13:53:01.330Z,94994.00
2023-05-05T13:54:01.152Z,94992.00
2023-05-05T13:55:01.155Z,94990.00
2023-05-05T13:56:01.137Z,94988.00
2023-05-05T13:57:01.136Z,94990.00
2023-05-05T13:58:01.125Z,94984.00
2023-05-05T13:59:01.119Z,94984.00
2023-05-05T14:00:01.148Z,94984.00
2023-05-05T14:01:01.970Z,94978.00
2023-05-05T14:02:01.105Z,94976.00
2023-05-05T14:03:01.157Z,94974.00
2023-05-05T14:04:03.626Z,94972.00
2023-05-05T14:05:01.091Z,94972.00
2023-05-05T14:06:01.095Z,94966.00
2023-05-05T14:07:01.089Z,94966.00
2023-05-05T14:08:01.065Z,94968.00
2023-05-05T14:09:01.710Z,94966.00
2023-05-05T14:10:01.091Z,94962.00
2023-05-05T14:11:01.502Z,94962.00
2023-05-05T14:12:01.048Z,94960.00
2023-05-05T14:13:01.094Z,94956.00
2023-05-05T14:14:01.035Z,94958.00
2023-05-05T14:15:01.025Z,94953.00
2023-05-05T14:16:01.106Z,94953.00
2023-05-05T14:17:01.086Z,94949.00
2023-05-05T14:18:01.009Z,94953.00
2023-05-05T14:19:01.055Z,94947.00
2023-05-05T14:20:01.100Z,94951.00
2023-05-05T14:21:01.127Z,94951.00
2023-05-05T14:22:01.131Z,94949.00
2023-05-05T14:23:01.145Z,94949.00
2023-05-05T14:24:01.135Z,94947.00
2023-05-05T14:25:01.285Z,94945.00
2023-05-05T14:26:01.128Z,94947.00
2023-05-05T14:27:01.160Z,94943.00
2023-05-05T14:28:01.218Z,94945.00
2023-05-05T14:29:01.233Z,94943.00
2023-05-05T14:30:01.252Z,94943.00
2023-05-05T14:31:01.235Z,94945.00
2023-05-05T14:32:01.335Z,94941.00
2023-05-05T14:33:01.418Z,94943.00
2023-05-05T14:34:01.497Z,94939.00
2023-05-05T14:35:01.360Z,94941.00
2023-05-05T14:36:01.379Z,94937.00
2023-05-05T14:37:01.426Z,94939.00
2023-05-05T14:38:01.416Z,94937.00
2023-05-05T14:39:01.503Z,94935.00
2023-05-05T14:40:02.534Z,94935.00
2023-05-05T14:41:01.573Z,94935.00
2023-05-05T14:42:01.415Z,94933.00
2023-05-05T14:43:01.409Z,94931.00
2023-05-05T14:44:01.400Z,94935.00
2023-05-05T14:45:01.384Z,94935.00
2023-05-05T14:46:01.424Z,94933.00
2023-05-05T14:47:01.379Z,94933.00
2023-05-05T14:48:01.396Z,94931.00
2023-05-05T14:49:01.371Z,94933.00
2023-05-05T14:50:01.357Z,94929.00
2023-05-05T14:51:01.351Z,94931.00
2023-05-05T14:52:01.347Z,94931.00
2023-05-05T14:53:01.346Z,94929.00
2023-05-05T14:54:01.341Z,94929.00
2023-05-05T14:55:01.324Z,94929.00
2023-05-05T14:56:01.320Z,94927.00
2023-05-05T14:57:01.409Z,94927.00
2023-05-05T14:58:01.311Z,94927.00
2023-05-05T14:59:01.297Z,94927.00
2023-05-05T15:00:01.333Z,94923.00
2023-05-05T15:01:01.285Z,94925.00
2023-05-05T15:02:01.627Z,94925.00
2023-05-05T15:03:01.380Z,94921.00
2023-05-05T15:04:01.291Z,94925.00
2023-05-05T15:05:01.260Z,94923.00
2023-05-05T15:06:01.269Z,94921.00
2023-05-05T15:07:01.244Z,94921.00
2023-05-05T15:08:01.233Z,94917.00
2023-05-05T15:09:01.228Z,94919.00
2023-05-05T15:10:01.217Z,94915.00
2023-05-05T15:11:01.208Z,94919.00
2023-05-05T15:12:01.200Z,94917.00
2023-05-05T15:13:01.355Z,94917.00
2023-05-05T15:14:01.190Z,94913.00
2023-05-05T15:15:01.204Z,94915.00
2023-05-05T15:16:01.245Z,94913.00
2023-05-05T15:17:01.201Z,94915.00
2023-05-05T15:18:01.280Z,94911.00
2023-05-05T15:19:01.287Z,94913.00
2023-05-05T15:20:01.371Z,94911.00
2023-05-05T15:21:01.402Z,94909.00
2023-05-05T15:22:01.468Z,94909.00
2023-05-05T15:23:01.467Z,94909.00
2023-05-05T15:24:01.510Z,94909.00
2023-05-05T15:25:01.594Z,94913.00
2023-05-05T15:26:01.635Z,94909.00
2023-05-05T15:27:01.671Z,94911.00
2023-05-05T15:28:01.750Z,94909.00
2023-05-05T15:29:01.959Z,94909.00
2023-05-05T15:30:01.789Z,94907.00
2023-05-05T15:31:01.850Z,94907.00
2023-05-05T15:32:01.944Z,94906.00
2023-05-05T15:33:01.944Z,94907.00
2023-05-05T15:34:01.978Z,94907.00
2023-05-05T15:35:02.036Z,94907.00
2023-05-05T15:36:02.121Z,94907.00
2023-05-05T15:37:02.161Z,94906.00
2023-05-05T15:38:02.219Z,94904.00
2023-05-05T15:39:02.250Z,94907.00
2023-05-05T15:40:02.311Z,94906.00
2023-05-05T15:41:02.323Z,94902.00
2023-05-05T15:42:02.356Z,94904.00
2023-05-05T15:43:02.375Z,94906.00
2023-05-05T15:44:02.393Z,94904.00
2023-05-05T15:45:02.451Z,94904.00
2023-05-05T15:46:02.403Z,94907.00
2023-05-05T15:47:02.456Z,94902.00
2023-05-05T15:48:02.478Z,94900.00
2023-05-05T15:49:02.446Z,94890.00
2023-05-05T15:50:02.546Z,94890.00
2023-05-05T15:51:02.490Z,94890.00
2023-05-05T15:52:02.476Z,94890.00
2023-05-05T15:53:02.475Z,94890.00
2023-05-05T15:54:02.480Z,94888.00
2023-05-05T15:55:02.473Z,94888.00
2023-05-05T15:56:02.486Z,94886.00
2023-05-05T15:57:02.479Z,94886.00
2023-05-05T15:58:02.508Z,94888.00
2023-05-05T15:59:02.511Z,94886.00
2023-05-05T16:00:02.556Z,94882.00
2023-05-05T16:01:02.598Z,94880.00
2023-05-05T16:02:02.576Z,94878.00
2023-05-05T16:03:02.702Z,94878.00
2023-05-05T16:04:02.606Z,94880.00
2023-05-05T16:05:02.616Z,94878.00
2023-05-05T16:06:02.644Z,94882.00
2023-05-05T16:07:02.659Z,94882.00
2023-05-05T16:08:02.674Z,94880.00
2023-05-05T16:09:02.699Z,94880.00
2023-05-05T16:10:02.785Z,94878.00
2023-05-05T16:11:02.725Z,94876.00
2023-05-05T16:12:02.733Z,94874.00
2023-05-05T16:13:02.837Z,94872.00
2023-05-05T16:14:02.798Z,94874.00
2023-05-05T16:15:02.830Z,94872.00
2023-05-05T16:16:02.828Z,94874.00
2023-05-05T16:17:03.048Z,94878.00
2023-05-05T16:18:02.922Z,94874.00
2023-05-05T16:19:02.914Z,94876.00
2023-05-05T16:20:02.951Z,94876.00
2023-05-05T16:21:02.968Z,94878.00
2023-05-05T16:22:02.956Z,94880.00
2023-05-05T16:23:02.958Z,94876.00
2023-05-05T16:24:02.987Z,94878.00
2023-05-05T16:25:03.021Z,94878.00
2023-05-05T16:26:03.058Z,94880.00
2023-05-05T16:27:03.082Z,94882.00
2023-05-05T16:28:03.093Z,94882.00
2023-05-05T16:29:03.091Z,94886.00
2023-05-05T16:30:03.243Z,94882.00
2023-05-05T16:31:03.141Z,94890.00
2023-05-05T16:32:03.271Z,94886.00
2023-05-05T16:33:03.381Z,94890.00
2023-05-05T16:34:03.215Z,94890.00
2023-05-05T16:35:03.236Z,94886.00
2023-05-05T16:36:03.246Z,94886.00
2023-05-05T16:37:03.294Z,94890.00
2023-05-05T16:38:03.366Z,94888.00
2023-05-05T16:39:03.383Z,94886.00
2023-05-05T16:40:03.389Z,94884.00
2023-05-05T16:41:03.486Z,94884.00
2023-05-05T16:42:03.479Z,94882.00
2023-05-05T16:43:03.505Z,94878.00
2023-05-05T16:44:03.513Z,94878.00
2023-05-05T16:45:03.526Z,94876.00
2023-05-05T16:46:03.601Z,94876.00
2023-05-05T16:47:03.531Z,94876.00
2023-05-05T16:48:03.612Z,94874.00
2023-05-05T16:49:03.712Z,94876.00
2023-05-05T16:50:03.671Z,94874.00
2023-05-05T16:51:03.718Z,94872.00
2023-05-05T16:52:03.819Z,94868.00
2023-05-05T16:53:03.844Z,94870.00
2023-05-05T16:54:03.898Z,94870.00
2023-05-05T16:55:03.942Z,94868.00
2023-05-05T16:56:03.989Z,94872.00
2023-05-05T16:57:04.050Z,94870.00
2023-05-05T16:58:04.102Z,94872.00
2023-05-05T16:59:04.143Z,94870.00
2023-05-05T17:00:04.202Z,94870.00
2023-05-05T17:01:04.259Z,94872.00
2023-05-05T17:02:04.416Z,94874.00
2023-05-05T17:03:04.372Z,94878.00
2023-05-05T17:04:04.434Z,94878.00
2023-05-05T17:05:04.664Z,94878.00
2023-05-05T17:06:04.506Z,94880.00
2023-05-05T17:07:04.553Z,94878.00
2023-05-05T17:08:04.596Z,94880.00
2023-05-05T17:09:04.637Z,94878.00
2023-05-05T17:10:04.686Z,94884.00
2023-05-05T17:11:04.733Z,94878.00